createdAt,value
2018-07-25T00:00:01.073Z,20.70
2018-07-25T00:02:29.281Z,20.70
2018-07-25T00:11:41.477Z,20.60
2018-07-25T00:14:09.966Z,20.40
2018-07-25T00:16:38.205Z,20.40
2018-07-25T00:19:06.398Z,20.50
2018-07-25T00:21:34.681Z,20.50
2018-07-25T00:24:02.850Z,20.60
2018-07-25T00:26:31.063Z,20.60
2018-07-25T00:28:59.281Z,20.60
2018-07-25T00:33:55.461Z,20.60
2018-07-25T00:36:23.870Z,20.60
2018-07-25T00:38:52.094Z,20.60
2018-07-25T00:41:20.321Z,20.60
2018-07-25T00:43:48.525Z,20.60
2018-07-25T00:46:16.802Z,20.60
2018-07-25T00:48:45.021Z,20.60
2018-07-25T00:51:13.237Z,20.60
2018-07-25T00:53:41.458Z,20.60
2018-07-25T00:56:09.680Z,20.60
2018-07-25T00:58:38.026Z,20.50
2018-07-25T01:01:06.258Z,20.40
2018-07-25T01:03:34.465Z,20.40
2018-07-25T01:06:02.717Z,20.30
2018-07-25T01:08:30.985Z,20.30
2018-07-25T01:10:59.218Z,20.30
2018-07-25T01:13:27.467Z,20.30
2018-07-25T01:15:55.673Z,20.30
2018-07-25T01:18:23.932Z,20.30
2018-07-25T01:20:52.218Z,20.20
2018-07-25T01:23:20.417Z,20.20
2018-07-25T01:25:48.649Z,20.20
2018-07-25T01:28:16.841Z,20.20
2018-07-25T01:30:45.076Z,20.10
2018-07-25T01:33:13.281Z,20.10
2018-07-25T01:35:41.468Z,20.10
2018-07-25T01:38:09.726Z,20.10
2018-07-25T01:40:37.931Z,20.10
2018-07-25T01:43:06.145Z,20.10
2018-07-25T01:45:34.357Z,20.00
2018-07-25T01:48:02.634Z,20.00
2018-07-25T01:50:30.869Z,19.90
2018-07-25T01:55:27.273Z,19.60
2018-07-25T01:57:55.512Z,19.50
2018-07-25T02:00:23.721Z,19.50
2018-07-25T02:02:51.922Z,19.40
2018-07-25T02:05:20.274Z,19.40
2018-07-25T02:07:48.623Z,19.40
2018-07-25T02:10:17.002Z,19.30
2018-07-25T02:12:45.226Z,19.30
2018-07-25T02:15:13.484Z,19.20
2018-07-25T02:17:41.830Z,19.10
2018-07-25T02:20:10.024Z,19.10
2018-07-25T02:22:38.249Z,19.00
2018-07-25T02:27:34.457Z,19.00
2018-07-25T02:30:02.725Z,19.00
2018-07-25T02:32:30.937Z,18.90
2018-07-25T02:34:59.150Z,18.90
2018-07-25T02:37:27.524Z,18.90
2018-07-25T02:39:55.752Z,18.90
2018-07-25T02:42:23.989Z,19.00
2018-07-25T02:44:52.171Z,19.00
2018-07-25T02:47:20.390Z,19.00
2018-07-25T02:49:48.654Z,19.00
2018-07-25T02:52:16.897Z,18.90
2018-07-25T02:56:14.359Z,18.90
2018-07-25T02:58:42.561Z,19.00
2018-07-25T03:01:10.785Z,18.80
2018-07-25T03:03:38.999Z,18.80
2018-07-25T03:06:07.258Z,18.70
2018-07-25T03:08:35.506Z,18.70
2018-07-25T03:11:03.885Z,18.60
2018-07-25T03:13:32.089Z,18.60
2018-07-25T03:16:04.315Z,18.60
2018-07-25T03:18:32.547Z,18.60
2018-07-25T03:21:01.515Z,18.50
2018-07-25T03:23:30.858Z,18.40
2018-07-25T03:25:59.086Z,18.30
2018-07-25T03:28:27.926Z,18.40
2018-07-25T03:30:56.162Z,18.40
2018-07-25T03:33:25.174Z,18.30
2018-07-25T03:35:54.013Z,18.30
2018-07-25T03:38:22.250Z,18.30
2018-07-25T03:40:50.498Z,18.30
2018-07-25T03:43:18.721Z,18.30
2018-07-25T03:45:46.997Z,18.20
2018-07-25T03:48:15.249Z,18.20
2018-07-25T03:50:43.489Z,18.20
2018-07-25T03:53:11.776Z,18.20
2018-07-25T03:55:40.173Z,18.20
2018-07-25T03:58:08.406Z,18.20
2018-07-25T04:00:36.688Z,18.20
2018-07-25T04:03:04.934Z,18.20
2018-07-25T04:08:01.125Z,18.10
2018-07-25T04:10:29.346Z,18.10
2018-07-25T04:12:57.585Z,18.20
2018-07-25T04:15:25.785Z,18.20
2018-07-25T04:17:54.038Z,18.20
2018-07-25T04:20:22.249Z,18.30
2018-07-25T04:22:50.473Z,18.40
2018-07-25T04:25:18.689Z,18.50
2018-07-25T04:27:47.254Z,18.50
2018-07-25T04:30:16.451Z,18.60
2018-07-25T04:32:45.279Z,18.60
2018-07-25T04:35:14.664Z,18.70
2018-07-25T04:37:43.707Z,18.70
2018-07-25T04:40:12.458Z,18.80
2018-07-25T04:42:40.737Z,18.90
2018-07-25T04:45:10.340Z,18.90
2018-07-25T04:47:38.674Z,19.00
2018-07-25T04:50:07.267Z,19.10
2018-07-25T04:52:35.508Z,19.20
2018-07-25T04:55:03.837Z,19.20
2018-07-25T04:57:32.102Z,19.30
2018-07-25T05:00:00.362Z,19.30
2018-07-25T05:02:29.807Z,19.50
2018-07-25T05:04:57.996Z,19.50
2018-07-25T05:07:26.241Z,19.60
2018-07-25T05:09:55.145Z,19.60
2018-07-25T05:12:23.466Z,19.70
2018-07-25T05:14:51.672Z,19.80
2018-07-25T05:17:19.971Z,19.90
2018-07-25T05:19:48.210Z,19.90
2018-07-25T05:22:16.442Z,20.10
2018-07-25T05:29:40.738Z,20.40
2018-07-25T05:32:08.950Z,20.50
2018-07-25T05:34:37.158Z,20.50
2018-07-25T05:37:05.454Z,20.60
2018-07-25T05:39:33.681Z,20.70
2018-07-25T05:42:01.903Z,20.80
2018-07-25T05:44:30.142Z,20.90
2018-07-25T05:46:58.355Z,21.00
2018-07-25T05:49:26.638Z,21.10
2018-07-25T05:51:54.793Z,21.10
2018-07-25T05:54:22.983Z,21.10
2018-07-25T05:56:51.238Z,21.20
2018-07-25T05:59:19.641Z,21.20
2018-07-25T06:01:47.886Z,21.30
2018-07-25T06:04:16.112Z,21.30
2018-07-25T06:06:44.277Z,21.40
2018-07-25T06:09:12.498Z,21.50
2018-07-25T06:11:40.706Z,21.50
2018-07-25T06:14:08.948Z,21.50
2018-07-25T06:16:37.137Z,21.60
2018-07-25T06:19:05.359Z,21.80
2018-07-25T06:21:33.578Z,22.00
2018-07-25T06:24:01.793Z,22.10
2018-07-25T06:26:29.994Z,22.20
2018-07-25T06:31:26.871Z,22.40
2018-07-25T06:33:55.158Z,22.50
2018-07-25T06:36:23.561Z,22.60
2018-07-25T06:38:51.792Z,22.70
2018-07-25T06:41:20.002Z,22.70
2018-07-25T06:43:48.269Z,22.70
2018-07-25T06:46:16.466Z,22.70
2018-07-25T06:48:44.714Z,22.80
2018-07-25T06:51:13.635Z,22.90
2018-07-25T06:53:41.927Z,22.90
2018-07-25T06:56:11.509Z,23.00
2018-07-25T06:58:39.842Z,23.10
2018-07-25T07:01:08.132Z,23.30
2018-07-25T07:03:36.501Z,23.40
2018-07-25T07:06:04.757Z,23.50
2018-07-25T07:11:00.994Z,23.50
2018-07-25T07:13:29.205Z,23.60
2018-07-25T07:15:57.541Z,23.60
2018-07-25T07:18:25.779Z,23.70
2018-07-25T07:20:54.058Z,23.60
2018-07-25T07:23:22.387Z,23.70
2018-07-25T07:28:18.644Z,24.00
2018-07-25T07:30:46.933Z,24.10
2018-07-25T07:33:15.202Z,24.20
2018-07-25T07:35:43.560Z,24.40
2018-07-25T07:38:11.831Z,24.50
2018-07-25T07:40:40.125Z,24.60
2018-07-25T07:43:08.349Z,24.70
2018-07-25T07:45:36.609Z,24.80
2018-07-25T07:48:04.950Z,24.90
2018-07-25T07:53:01.359Z,25.00
2018-07-25T07:55:29.674Z,25.00
2018-07-25T07:57:57.994Z,25.00
2018-07-25T08:00:26.225Z,25.10
2018-07-25T08:05:22.554Z,25.20
2018-07-25T08:07:51.093Z,25.30
2018-07-25T08:10:19.381Z,25.40
2018-07-25T08:12:47.688Z,25.50
2018-07-25T08:15:16.006Z,25.70
2018-07-25T08:17:44.460Z,25.80
2018-07-25T08:20:12.866Z,26.00
2018-07-25T08:22:41.165Z,26.00
2018-07-25T08:25:09.409Z,26.00
2018-07-25T08:27:37.660Z,26.10
2018-07-25T08:30:06.809Z,26.20
2018-07-25T08:32:35.411Z,26.20
2018-07-25T08:35:03.785Z,26.30
2018-07-25T08:37:32.046Z,26.30
2018-07-25T08:40:00.630Z,26.30
2018-07-25T08:42:34.436Z,26.40
2018-07-25T08:45:10.138Z,26.50
2018-07-25T08:47:41.233Z,26.60
2018-07-25T08:50:14.927Z,26.60
2018-07-25T08:52:47.736Z,26.70
2018-07-25T08:55:16.072Z,26.70
2018-07-25T08:57:44.429Z,26.90
2018-07-25T09:00:13.406Z,27.00
2018-07-25T09:02:41.836Z,27.10
2018-07-25T09:05:10.856Z,27.10
2018-07-25T09:07:39.767Z,27.10
2018-07-25T09:10:07.962Z,27.20
2018-07-25T09:12:36.386Z,27.30
2018-07-25T09:15:04.733Z,27.30
2018-07-25T09:17:33.009Z,27.40
2018-07-25T09:20:01.244Z,27.40
2018-07-25T09:22:29.590Z,27.50
2018-07-25T09:24:58.064Z,27.50
2018-07-25T09:27:26.409Z,27.60
2018-07-25T09:29:54.684Z,27.70
2018-07-25T09:32:23.178Z,27.70
2018-07-25T09:34:51.559Z,27.80
2018-07-25T09:39:47.906Z,27.90
2018-07-25T09:42:16.140Z,28.00
2018-07-25T09:44:44.405Z,28.00
2018-07-25T09:47:12.950Z,28.10
2018-07-25T09:49:41.351Z,28.20
2018-07-25T09:52:09.645Z,28.30
2018-07-25T09:54:37.946Z,28.30
2018-07-25T09:57:06.234Z,28.40
2018-07-25T09:59:34.474Z,28.50
2018-07-25T10:02:02.786Z,28.40
2018-07-25T10:04:31.008Z,28.50
2018-07-25T10:06:59.453Z,28.50
2018-07-25T10:09:28.767Z,28.60
2018-07-25T10:11:57.095Z,28.60
2018-07-25T10:14:25.350Z,28.70
2018-07-25T10:16:53.687Z,28.70
2018-07-25T10:19:22.069Z,28.70
2018-07-25T10:21:50.297Z,28.80
2018-07-25T10:24:19.189Z,28.90
2018-07-25T10:26:47.605Z,29.10
2018-07-25T10:31:44.168Z,29.30
2018-07-25T10:34:12.600Z,29.50
2018-07-25T10:36:40.880Z,29.60
2018-07-25T10:39:09.835Z,29.60
2018-07-25T10:41:38.259Z,29.60
2018-07-25T10:44:06.506Z,29.80
2018-07-25T10:46:34.769Z,29.90
2018-07-25T10:49:03.058Z,30.00
2018-07-25T10:51:31.377Z,30.20
2018-07-25T10:56:27.758Z,30.60
2018-07-25T10:58:56.062Z,30.90
2018-07-25T11:01:25.996Z,31.10
2018-07-25T11:03:55.363Z,31.50
2018-07-25T11:06:23.640Z,31.90
2018-07-25T11:08:54.240Z,32.10
2018-07-25T11:11:22.625Z,32.50
2018-07-25T11:13:50.953Z,32.90
2018-07-25T11:16:19.342Z,33.20
2018-07-25T11:18:47.773Z,33.60
2018-07-25T11:21:16.057Z,34.30
2018-07-25T11:23:44.328Z,34.80
2018-07-25T11:26:12.680Z,35.30
2018-07-25T11:28:41.560Z,35.50
2018-07-25T11:31:10.097Z,35.40
2018-07-25T11:33:38.391Z,35.30
2018-07-25T11:36:06.696Z,35.00
2018-07-25T11:38:35.017Z,34.70
2018-07-25T11:41:03.306Z,34.20
2018-07-25T11:43:32.089Z,33.70
2018-07-25T11:46:00.374Z,33.40
2018-07-25T11:48:28.883Z,33.10
2018-07-25T11:50:57.182Z,32.90
2018-07-25T11:53:25.594Z,32.70
2018-07-25T11:55:54.480Z,32.80
2018-07-25T11:58:23.155Z,33.80
2018-07-25T12:03:19.725Z,35.50
2018-07-25T12:05:47.995Z,36.80
2018-07-25T12:08:16.479Z,38.90
2018-07-25T12:10:44.836Z,41.00
2018-07-25T12:15:41.210Z,45.10
2018-07-25T12:18:09.770Z,45.90
2018-07-25T12:20:38.285Z,45.40
2018-07-25T12:23:06.777Z,44.10
2018-07-25T12:25:35.054Z,43.40
2018-07-25T12:28:03.459Z,43.10
2018-07-25T12:30:31.791Z,42.30
2018-07-25T12:33:00.069Z,41.80
2018-07-25T12:36:57.762Z,42.80
2018-07-25T12:39:26.069Z,44.40
2018-07-25T12:41:54.434Z,46.00
2018-07-25T12:44:22.868Z,46.80
2018-07-25T12:46:51.206Z,48.00
2018-07-25T12:49:19.510Z,48.90
2018-07-25T12:51:47.822Z,49.70
2018-07-25T12:54:16.239Z,50.40
2018-07-25T12:56:44.377Z,51.20
2018-07-25T12:59:12.655Z,51.60
2018-07-25T13:03:10.105Z,51.40
2018-07-25T13:05:38.701Z,49.60
2018-07-25T13:08:07.064Z,46.20
2018-07-25T13:10:35.483Z,45.30
2018-07-25T13:13:03.788Z,46.10
2018-07-25T13:15:32.137Z,47.60
2018-07-25T13:18:00.510Z,48.90
2018-07-25T13:20:29.297Z,48.70
2018-07-25T13:24:27.062Z,47.30
2018-07-25T13:26:55.357Z,46.10
2018-07-25T13:29:23.593Z,47.10
2018-07-25T13:31:51.855Z,48.50
2018-07-25T13:34:20.177Z,49.90
2018-07-25T13:36:48.406Z,51.20
2018-07-25T13:39:16.630Z,52.30
2018-07-25T13:41:44.972Z,53.20
2018-07-25T13:44:23.613Z,52.20
2018-07-25T13:46:55.600Z,49.80
2018-07-25T13:49:23.809Z,47.20
2018-07-25T13:51:52.068Z,45.10
2018-07-25T13:54:20.233Z,45.20
2018-07-25T13:56:48.489Z,46.30
2018-07-25T13:59:16.738Z,47.90
2018-07-25T14:01:45.004Z,49.90
2018-07-25T14:04:13.198Z,51.60
2018-07-25T14:06:41.661Z,53.00
2018-07-25T14:09:11.170Z,54.10
2018-07-25T14:11:40.448Z,55.00
2018-07-25T14:14:09.119Z,55.30
2018-07-25T14:16:37.350Z,55.60
2018-07-25T14:19:06.070Z,55.90
2018-07-25T14:24:02.881Z,56.70
2018-07-25T14:26:30.853Z,55.10
2018-07-25T14:28:59.184Z,53.00
2018-07-25T14:31:28.005Z,52.80
2018-07-25T14:33:56.470Z,53.20
2018-07-25T14:36:24.833Z,54.20
2018-07-25T14:38:53.053Z,55.10
2018-07-25T14:41:21.328Z,55.80
2018-07-25T14:43:49.897Z,56.40
2018-07-25T14:46:18.223Z,57.30
2018-07-25T14:48:46.614Z,57.80
2018-07-25T14:53:42.825Z,57.80
2018-07-25T14:56:11.034Z,57.70
2018-07-25T14:58:39.742Z,58.10
2018-07-25T15:01:07.965Z,58.40
2018-07-25T15:03:36.313Z,59.00
2018-07-25T15:06:04.614Z,59.60
2018-07-25T15:08:32.898Z,60.20
2018-07-25T15:11:01.178Z,60.20
2018-07-25T15:13:29.402Z,60.10
2018-07-25T15:15:57.617Z,60.20
2018-07-25T15:18:25.970Z,60.50
2018-07-25T15:20:54.201Z,60.20
2018-07-25T15:25:55.951Z,60.00
2018-07-25T15:30:52.381Z,59.80
2018-07-25T15:33:20.737Z,59.80
2018-07-25T15:35:48.994Z,59.70
2018-07-25T15:38:17.403Z,59.40
2018-07-25T15:40:45.698Z,59.00
2018-07-25T15:43:13.959Z,58.70
2018-07-25T15:45:42.246Z,58.60
2018-07-25T15:48:10.515Z,58.50
2018-07-25T15:50:38.796Z,58.40
2018-07-25T15:53:07.134Z,58.40
2018-07-25T15:55:35.433Z,58.60
2018-07-25T15:58:04.009Z,58.90
2018-07-25T16:00:32.469Z,59.00
2018-07-25T16:03:00.721Z,58.70
2018-07-25T16:05:29.024Z,58.40
2018-07-25T16:07:57.346Z,58.00
2018-07-25T16:10:25.641Z,57.60
2018-07-25T16:12:54.189Z,56.90
2018-07-25T16:15:22.465Z,56.40
2018-07-25T16:17:50.674Z,56.20
2018-07-25T16:20:18.881Z,55.80
2018-07-25T16:22:47.146Z,53.90
2018-07-25T16:25:15.433Z,53.60
2018-07-25T16:27:43.763Z,53.50
2018-07-25T16:30:12.100Z,53.10
2018-07-25T16:32:40.310Z,51.80
2018-07-25T16:35:08.642Z,49.00
2018-07-25T16:37:37.168Z,46.80
2018-07-25T16:40:05.633Z,44.00
2018-07-25T16:42:33.842Z,41.20
2018-07-25T16:45:02.495Z,38.70
2018-07-25T16:47:30.722Z,36.70
2018-07-25T16:49:58.970Z,35.10
2018-07-25T16:52:27.237Z,33.80
2018-07-25T16:54:55.477Z,32.90
2018-07-25T16:57:23.685Z,32.20
2018-07-25T16:59:51.897Z,31.70
2018-07-25T17:02:20.181Z,31.20
2018-07-25T17:04:48.429Z,30.80
2018-07-25T17:07:17.109Z,30.40
2018-07-25T17:09:45.377Z,30.10
2018-07-25T17:12:13.632Z,29.80
2018-07-25T17:14:41.905Z,29.60
2018-07-25T17:17:10.073Z,29.60
2018-07-25T17:19:38.291Z,29.80
2018-07-25T17:22:06.738Z,29.80
2018-07-25T17:24:34.967Z,29.80
2018-07-25T17:27:03.291Z,29.80
2018-07-25T17:29:31.582Z,29.70
2018-07-25T17:31:59.852Z,29.60
2018-07-25T17:34:28.074Z,29.50
2018-07-25T17:36:56.292Z,29.30
2018-07-25T17:39:24.527Z,29.10
2018-07-25T17:41:52.798Z,28.90
2018-07-25T17:44:21.084Z,28.70
2018-07-25T17:46:49.505Z,28.50
2018-07-25T17:49:17.717Z,28.40
2018-07-25T17:51:46.104Z,28.30
2018-07-25T17:54:14.591Z,28.10
2018-07-25T17:56:43.014Z,28.10
2018-07-25T17:59:11.386Z,28.00
2018-07-25T18:01:39.575Z,27.90
2018-07-25T18:04:07.802Z,27.60
2018-07-25T18:06:36.064Z,27.30
2018-07-25T18:09:06.105Z,27.10
2018-07-25T18:11:34.334Z,26.90
2018-07-25T18:14:08.261Z,26.80
2018-07-25T18:16:36.488Z,26.70
2018-07-25T18:19:04.726Z,26.70
2018-07-25T18:21:32.948Z,26.70
2018-07-25T18:24:01.159Z,26.70
2018-07-25T18:26:29.344Z,26.80
2018-07-25T18:28:57.541Z,26.80
2018-07-25T18:31:25.754Z,26.90
2018-07-25T18:33:54.049Z,26.90
2018-07-25T18:36:22.258Z,26.80
2018-07-25T18:38:50.493Z,26.80
2018-07-25T18:41:18.703Z,26.80
2018-07-25T18:43:46.957Z,26.70
2018-07-25T18:46:15.175Z,26.60
2018-07-25T18:48:43.397Z,26.60
2018-07-25T18:51:11.925Z,26.50
2018-07-25T18:53:40.185Z,26.60
2018-07-25T18:56:08.568Z,26.60
2018-07-25T18:58:36.885Z,26.60
2018-07-25T19:01:05.130Z,26.60
2018-07-25T19:03:33.365Z,26.60
2018-07-25T19:06:01.571Z,26.60
2018-07-25T19:08:30.651Z,26.50
2018-07-25T19:10:58.844Z,26.50
2018-07-25T19:13:32.485Z,26.50
2018-07-25T19:16:00.782Z,26.50
2018-07-25T19:18:29.166Z,26.50
2018-07-25T19:20:57.476Z,26.50
2018-07-25T19:25:53.670Z,26.50
2018-07-25T19:28:22.539Z,26.60
2018-07-25T19:30:50.929Z,26.50
2018-07-25T19:33:19.158Z,26.40
2018-07-25T19:35:47.440Z,26.20
2018-07-25T19:38:15.681Z,26.10
2018-07-25T19:40:43.978Z,26.10
2018-07-25T19:43:12.202Z,26.10
2018-07-25T19:45:40.428Z,26.10
2018-07-25T19:48:08.698Z,26.00
2018-07-25T19:50:36.945Z,26.00
2018-07-25T19:53:05.297Z,25.90
2018-07-25T19:55:33.497Z,25.90
2018-07-25T19:58:01.845Z,25.80
2018-07-25T20:00:30.141Z,25.70
2018-07-25T20:02:58.602Z,25.60
2018-07-25T20:05:26.810Z,25.50
2018-07-25T20:07:55.053Z,25.40
2018-07-25T20:10:23.551Z,25.40
2018-07-25T20:12:51.769Z,25.40
2018-07-25T20:15:25.485Z,25.30
2018-07-25T20:20:21.737Z,25.20
2018-07-25T20:22:49.966Z,25.20
2018-07-25T20:25:18.464Z,25.10
2018-07-25T20:27:46.689Z,25.10
2018-07-25T20:30:14.938Z,25.00
2018-07-25T20:32:43.154Z,25.00
2018-07-25T20:35:11.378Z,24.90
2018-07-25T20:37:39.631Z,24.90
2018-07-25T20:40:07.906Z,24.90
2018-07-25T20:42:36.165Z,24.80
2018-07-25T20:45:04.833Z,24.80
2018-07-25T20:47:33.255Z,24.80
2018-07-25T20:50:01.519Z,24.70
2018-07-25T20:52:29.737Z,24.70
2018-07-25T20:54:57.972Z,24.60
2018-07-25T20:57:26.183Z,24.50
2018-07-25T20:59:54.421Z,24.40
2018-07-25T21:02:22.658Z,24.30
2018-07-25T21:04:50.893Z,24.20
2018-07-25T21:07:19.133Z,24.10
2018-07-25T21:09:47.449Z,24.00
2018-07-25T21:12:15.726Z,23.90
2018-07-25T21:14:43.962Z,23.80
2018-07-25T21:17:12.337Z,23.70
2018-07-25T21:19:40.557Z,23.70
2018-07-25T21:22:08.824Z,23.70
2018-07-25T21:24:37.055Z,23.70
2018-07-25T21:27:05.314Z,23.70
2018-07-25T21:29:33.561Z,23.70
2018-07-25T21:32:01.951Z,23.60
2018-07-25T21:34:30.202Z,23.50
2018-07-25T21:36:58.445Z,23.40
2018-07-25T21:39:26.717Z,23.40
2018-07-25T21:41:54.950Z,23.30
2018-07-25T21:44:23.193Z,23.20
2018-07-25T21:46:51.493Z,23.10
2018-07-25T21:49:19.746Z,23.00
2018-07-25T21:51:47.995Z,22.90
2018-07-25T21:54:16.563Z,22.90
2018-07-25T21:56:44.870Z,22.80
2018-07-25T21:59:13.105Z,22.80
2018-07-25T22:01:41.419Z,22.70
2018-07-25T22:04:09.625Z,22.70
2018-07-25T22:06:37.858Z,22.70
2018-07-25T22:09:09.211Z,22.70
2018-07-25T22:11:37.973Z,22.60
2018-07-25T22:14:06.323Z,22.60
2018-07-25T22:16:34.593Z,22.60
2018-07-25T22:19:02.825Z,22.50
2018-07-25T22:21:31.050Z,22.50
2018-07-25T22:23:59.284Z,22.50
2018-07-25T22:26:27.531Z,22.40
2018-07-25T22:28:55.935Z,22.30
2018-07-25T22:31:24.146Z,22.30
2018-07-25T22:33:52.378Z,22.30
2018-07-25T22:36:20.859Z,22.30
2018-07-25T22:38:49.063Z,22.40
2018-07-25T22:41:17.272Z,22.40
2018-07-25T22:43:45.529Z,22.40
2018-07-25T22:46:13.767Z,22.40
2018-07-25T22:48:41.997Z,22.30
2018-07-25T22:51:10.211Z,22.30
2018-07-25T22:53:38.491Z,22.30
2018-07-25T22:56:06.717Z,22.30
2018-07-25T23:01:03.041Z,22.20
2018-07-25T23:03:31.285Z,22.30
2018-07-25T23:05:59.514Z,22.20
2018-07-25T23:08:27.741Z,22.20
2018-07-25T23:10:55.978Z,22.20
2018-07-25T23:13:24.237Z,22.20
2018-07-25T23:15:52.526Z,22.10
2018-07-25T23:20:48.739Z,22.10
2018-07-25T23:23:16.999Z,22.10
2018-07-25T23:25:45.213Z,21.90
2018-07-25T23:28:13.464Z,21.70
2018-07-25T23:30:41.654Z,21.60
2018-07-25T23:33:09.897Z,21.60
2018-07-25T23:35:38.121Z,21.60
2018-07-25T23:38:06.397Z,21.50
2018-07-25T23:43:02.952Z,21.40
2018-07-25T23:45:31.201Z,21.30
2018-07-25T23:47:59.427Z,21.30
2018-07-25T23:50:27.646Z,21.40
2018-07-25T23:52:55.901Z,21.40
2018-07-25T23:55:24.114Z,21.40
2018-07-25T23:57:52.422Z,21.40
